sensor_id;sensor_type;location;lat;lon;timestamp;noise_LAeq;noise_LA_min;noise_LA_max;noise_LA01;noise_LA95
49732;Laerm;43666;51.442;6.778;2023-06-14T00:00:20;40.64;38.67;42.35;;
49732;Laerm;43666;51.442;6.778;2023-06-14T00:02:46;40.62;38.37;42.16;;
49732;Laerm;43666;51.442;6.778;2023-06-14T00:05:12;40.61;38.37;42.29;;
49732;Laerm;43666;51.442;6.778;2023-06-14T00:07:39;40.63;38.67;42.22;;
49732;Laerm;43666;51.442;6.778;2023-06-14T00:10:10;40.61;38.52;42.16;;
49732;Laerm;43666;51.442;6.778;2023-06-14T00:12:36;40.61;38.52;42.09;;
49732;Laerm;43666;51.442;6.778;2023-06-14T00:15:02;40.61;38.37;42.22;;
49732;Laerm;43666;51.442;6.778;2023-06-14T00:17:29;40.61;38.21;42.22;;
49732;Laerm;43666;51.442;6.778;2023-06-14T00:19:56;40.62;38.37;42.19;;
49732;Laerm;43666;51.442;6.778;2023-06-14T00:22:22;40.60;38.81;42.13;;
49732;Laerm;43666;51.442;6.778;2023-06-14T00:24:52;40.61;38.67;42.09;;
49732;Laerm;43666;51.442;6.778;2023-06-14T00:27:18;40.61;38.67;42.35;;
49732;Laerm;43666;51.442;6.778;2023-06-14T00:29:44;40.60;38.67;42.29;;
49732;Laerm;43666;51.442;6.778;2023-06-14T00:32:10;40.62;38.52;42.16;;
49732;Laerm;43666;51.442;6.778;2023-06-14T00:34:36;40.62;38.81;42.35;;
49732;Laerm;43666;51.442;6.778;2023-06-14T00:37:02;40.63;38.81;42.09;;
49732;Laerm;43666;51.442;6.778;2023-06-14T00:39:28;40.62;38.37;42.09;;
49732;Laerm;43666;51.442;6.778;2023-06-14T00:41:53;40.63;38.52;42.41;;
49732;Laerm;43666;51.442;6.778;2023-06-14T00:44:19;40.64;38.67;42.22;;
49732;Laerm;43666;51.442;6.778;2023-06-14T00:46:45;40.64;38.37;42.71;;
49732;Laerm;43666;51.442;6.778;2023-06-14T00:49:12;40.63;38.67;42.22;;
49732;Laerm;43666;51.442;6.778;2023-06-14T00:51:39;40.63;38.52;42.22;;
49732;Laerm;43666;51.442;6.778;2023-06-14T00:54:05;40.62;38.95;42.22;;
49732;Laerm;43666;51.442;6.778;2023-06-14T00:56:30;40.63;38.81;42.35;;
49732;Laerm;43666;51.442;6.778;2023-06-14T00:58:56;40.61;38.37;42.41;;
49732;Laerm;43666;51.442;6.778;2023-06-14T01:01:23;40.62;38.52;42.29;;
49732;Laerm;43666;51.442;6.778;2023-06-14T01:03:49;40.62;38.05;42.22;;
49732;Laerm;43666;51.442;6.778;2023-06-14T01:06:45;40.61;38.37;42.29;;
49732;Laerm;43666;51.442;6.778;2023-06-14T01:09:32;40.62;38.67;42.16;;
49732;Laerm;43666;51.442;6.778;2023-06-14T01:12:13;40.62;38.67;42.09;;
49732;Laerm;43666;51.442;6.778;2023-06-14T01:14:41;40.62;38.67;42.35;;
49732;Laerm;43666;51.442;6.778;2023-06-14T01:17:08;40.61;38.37;42.16;;
49732;Laerm;43666;51.442;6.778;2023-06-14T01:19:44;40.61;38.37;42.09;;
49732;Laerm;43666;51.442;6.778;2023-06-14T01:22:10;40.59;38.21;42.22;;
49732;Laerm;43666;51.442;6.778;2023-06-14T01:24:36;40.60;38.81;42.22;;
49732;Laerm;43666;51.442;6.778;2023-06-14T01:27:05;40.61;38.37;42.22;;
49732;Laerm;43666;51.442;6.778;2023-06-14T01:29:32;40.60;38.67;42.16;;
49732;Laerm;43666;51.442;6.778;2023-06-14T01:31:59;40.60;38.21;42.22;;
49732;Laerm;43666;51.442;6.778;2023-06-14T01:34:26;40.60;38.81;42.42;;
49732;Laerm;43666;51.442;6.778;2023-06-14T01:36:51;40.60;38.52;42.16;;
49732;Laerm;43666;51.442;6.778;2023-06-14T01:39:18;40.60;38.52;42.09;;
49732;Laerm;43666;51.442;6.778;2023-06-14T01:41:44;40.60;38.47;42.41;;
49732;Laerm;43666;51.442;6.778;2023-06-14T01:44:12;40.61;38.21;42.16;;
49732;Laerm;43666;51.442;6.778;2023-06-14T01:46:39;40.60;38.67;42.09;;
49732;Laerm;43666;51.442;6.778;2023-06-14T01:49:06;40.60;38.67;42.35;;
49732;Laerm;43666;51.442;6.778;2023-06-14T01:51:32;40.60;38.67;42.22;;
49732;Laerm;43666;51.442;6.778;2023-06-14T01:53:58;40.59;38.52;42.35;;
49732;Laerm;43666;51.442;6.778;2023-06-14T01:56:25;40.60;38.67;42.41;;
49732;Laerm;43666;51.442;6.778;2023-06-14T01:58:51;40.61;38.81;42.29;;
49732;Laerm;43666;51.442;6.778;2023-06-14T02:01:18;40.61;38.52;42.22;;
49732;Laerm;43666;51.442;6.778;2023-06-14T02:03:44;40.60;38.52;42.35;;
49732;Laerm;43666;51.442;6.778;2023-06-14T02:06:10;40.61;38.67;42.22;;
49732;Laerm;43666;51.442;6.778;2023-06-14T02:08:36;40.61;38.67;42.16;;
49732;Laerm;43666;51.442;6.778;2023-06-14T02:11:02;40.60;38.37;42.09;;
49732;Laerm;43666;51.442;6.778;2023-06-14T02:13:27;40.61;38.67;42.09;;
49732;Laerm;43666;51.442;6.778;2023-06-14T02:15:53;40.58;37.88;42.09;;
49732;Laerm;43666;51.442;6.778;2023-06-14T02:18:20;40.58;38.52;42.35;;
49732;Laerm;43666;51.442;6.778;2023-06-14T02:20:46;40.59;38.67;42.29;;
49732;Laerm;43666;51.442;6.778;2023-06-14T02:23:12;40.60;38.67;42.29;;
49732;Laerm;43666;51.442;6.778;2023-06-14T02:25:38;40.59;38.52;42.16;;
49732;Laerm;43666;51.442;6.778;2023-06-14T02:28:05;40.60;38.37;42.24;;
49732;Laerm;43666;51.442;6.778;2023-06-14T02:30:31;40.61;38.81;42.03;;
49732;Laerm;43666;51.442;6.778;2023-06-14T02:32:56;40.59;38.37;42.29;;
49732;Laerm;43666;51.442;6.778;2023-06-14T02:35:22;40.60;38.37;42.22;;
49732;Laerm;43666;51.442;6.778;2023-06-14T02:37:52;40.61;38.81;42.35;;
49732;Laerm;43666;51.442;6.778;2023-06-14T02:40:19;40.62;38.52;42.09;;
49732;Laerm;43666;51.442;6.778;2023-06-14T02:42:44;40.62;38.21;42.16;;
49732;Laerm;43666;51.442;6.778;2023-06-14T02:45:10;40.62;38.52;42.29;;
49732;Laerm;43666;51.442;6.778;2023-06-14T02:47:36;40.61;38.52;42.22;;
49732;Laerm;43666;51.442;6.778;2023-06-14T02:50:02;40.60;38.81;42.41;;
49732;Laerm;43666;51.442;6.778;2023-06-14T02:52:28;40.61;38.67;42.09;;
49732;Laerm;43666;51.442;6.778;2023-06-14T02:54:54;40.62;38.52;42.22;;
49732;Laerm;43666;51.442;6.778;2023-06-14T02:57:20;40.62;38.67;42.16;;
49732;Laerm;43666;51.442;6.778;2023-06-14T02:59:46;40.61;38.21;42.16;;
49732;Laerm;43666;51.442;6.778;2023-06-14T03:02:12;40.62;38.52;42.29;;
49732;Laerm;43666;51.442;6.778;2023-06-14T03:04:38;40.60;38.67;42.03;;
49732;Laerm;43666;51.442;6.778;2023-06-14T03:07:04;40.60;38.21;42.09;;
49732;Laerm;43666;51.442;6.778;2023-06-14T03:09:36;40.60;38.52;42.09;;
49732;Laerm;43666;51.442;6.778;2023-06-14T03:12:03;40.60;38.67;42.22;;
49732;Laerm;43666;51.442;6.778;2023-06-14T03:14:30;40.61;38.52;42.22;;
49732;Laerm;43666;51.442;6.778;2023-06-14T03:16:56;40.60;38.67;42.35;;
49732;Laerm;43666;51.442;6.778;2023-06-14T03:19:23;40.62;38.67;42.22;;
49732;Laerm;43666;51.442;6.778;2023-06-14T03:21:48;40.61;38.67;42.03;;
49732;Laerm;43666;51.442;6.778;2023-06-14T03:24:15;40.62;37.88;42.22;;
49732;Laerm;43666;51.442;6.778;2023-06-14T03:26:44;40.61;38.81;42.29;;
49732;Laerm;43666;51.442;6.778;2023-06-14T03:29:10;40.60;38.52;42.22;;
49732;Laerm;43666;51.442;6.778;2023-06-14T03:31:36;40.62;38.67;42.03;;
49732;Laerm;43666;51.442;6.778;2023-06-14T03:34:03;40.63;38.67;42.29;;
49732;Laerm;43666;51.442;6.778;2023-06-14T03:36:29;40.60;38.52;42.09;;
49732;Laerm;43666;51.442;6.778;2023-06-14T03:38:55;40.60;38.37;42.09;;
49732;Laerm;43666;51.442;6.778;2023-06-14T03:41:21;40.61;38.67;42.16;;
49732;Laerm;43666;51.442;6.778;2023-06-14T03:43:46;40.61;38.81;42.22;;
49732;Laerm;43666;51.442;6.778;2023-06-14T03:46:12;40.61;38.52;42.16;;
49732;Laerm;43666;51.442;6.778;2023-06-14T03:48:37;40.61;38.67;42.09;;
49732;Laerm;43666;51.442;6.778;2023-06-14T03:51:04;40.62;38.60;42.16;;
49732;Laerm;43666;51.442;6.778;2023-06-14T03:53:30;40.63;38.52;42.22;;
49732;Laerm;43666;51.442;6.778;2023-06-14T03:55:56;40.62;38.81;42.16;;
49732;Laerm;43666;51.442;6.778;2023-06-14T03:58:23;40.62;38.67;42.19;;
49732;Laerm;43666;51.442;6.778;2023-06-14T04:00:50;40.61;38.67;42.22;;
49732;Laerm;43666;51.442;6.778;2023-06-14T04:03:15;40.61;38.52;42.16;;
49732;Laerm;43666;51.442;6.778;2023-06-14T04:05:41;40.62;38.81;42.22;;
49732;Laerm;43666;51.442;6.778;2023-06-14T04:08:14;40.61;38.52;42.16;;
49732;Laerm;43666;51.442;6.778;2023-06-14T04:10:41;40.63;38.21;42.09;;
49732;Laerm;43666;51.442;6.778;2023-06-14T04:13:07;40.62;38.52;42.16;;
49732;Laerm;43666;51.442;6.778;2023-06-14T04:15:32;40.61;38.37;42.16;;
49732;Laerm;43666;51.442;6.778;2023-06-14T04:17:59;40.62;38.67;42.03;;
49732;Laerm;43666;51.442;6.778;2023-06-14T04:20:25;40.61;38.37;42.09;;
49732;Laerm;43666;51.442;6.778;2023-06-14T04:22:51;40.62;38.52;42.09;;
49732;Laerm;43666;51.442;6.778;2023-06-14T04:25:18;40.63;38.67;42.29;;
49732;Laerm;43666;51.442;6.778;2023-06-14T04:27:44;40.63;38.52;42.41;;
49732;Laerm;43666;51.442;6.778;2023-06-14T04:30:10;40.61;38.67;42.16;;
49732;Laerm;43666;51.442;6.778;2023-06-14T04:32:36;40.64;38.52;42.35;;
49732;Laerm;43666;51.442;6.778;2023-06-14T04:35:05;40.64;38.67;42.22;;
49732;Laerm;43666;51.442;6.778;2023-06-14T04:37:32;40.63;38.81;42.22;;
49732;Laerm;43666;51.442;6.778;2023-06-14T04:39:58;40.64;38.67;42.59;;
49732;Laerm;43666;51.442;6.778;2023-06-14T04:42:24;40.63;38.52;42.09;;
49732;Laerm;43666;51.442;6.778;2023-06-14T04:44:56;40.64;38.81;42.16;;
49732;Laerm;43666;51.442;6.778;2023-06-14T04:47:21;40.64;38.67;42.29;;
49732;Laerm;43666;51.442;6.778;2023-06-14T04:49:47;40.64;38.52;42.22;;
49732;Laerm;43666;51.442;6.778;2023-06-14T04:52:13;40.64;38.67;42.19;;
49732;Laerm;43666;51.442;6.778;2023-06-14T04:54:39;40.64;38.05;42.16;;
49732;Laerm;43666;51.442;6.778;2023-06-14T04:57:09;40.64;38.67;42.29;;
49732;Laerm;43666;51.442;6.778;2023-06-14T04:59:40;40.65;38.81;42.19;;
49732;Laerm;43666;51.442;6.778;2023-06-14T05:02:06;40.65;38.52;42.16;;
49732;Laerm;43666;51.442;6.778;2023-06-14T05:04:32;40.66;38.67;42.29;;
49732;Laerm;43666;51.442;6.778;2023-06-14T05:06:59;40.66;38.37;42.35;;
49732;Laerm;43666;51.442;6.778;2023-06-14T05:09:24;40.65;38.67;42.29;;
49732;Laerm;43666;51.442;6.778;2023-06-14T05:11:50;40.65;38.81;42.22;;
49732;Laerm;43666;51.442;6.778;2023-06-14T05:14:16;40.64;38.52;42.29;;
49732;Laerm;43666;51.442;6.778;2023-06-14T05:16:42;40.66;38.67;42.09;;
49732;Laerm;43666;51.442;6.778;2023-06-14T05:19:08;40.65;38.52;42.35;;
49732;Laerm;43666;51.442;6.778;2023-06-14T05:21:36;40.66;38.37;42.16;;
49732;Laerm;43666;51.442;6.778;2023-06-14T05:24:02;40.63;38.67;42.16;;
49732;Laerm;43666;51.442;6.778;2023-06-14T05:26:28;40.66;38.81;42.16;;
49732;Laerm;43666;51.442;6.778;2023-06-14T05:28:57;40.66;38.67;42.59;;
49732;Laerm;43666;51.442;6.778;2023-06-14T05:31:23;40.67;38.67;42.22;;
49732;Laerm;43666;51.442;6.778;2023-06-14T05:33:49;40.64;38.52;42.47;;
49732;Laerm;43666;51.442;6.778;2023-06-14T05:36:15;40.66;38.52;42.16;;
49732;Laerm;43666;51.442;6.778;2023-06-14T05:38:41;40.66;38.81;42.22;;
49732;Laerm;43666;51.442;6.778;2023-06-14T05:41:07;40.65;38.52;42.35;;
49732;Laerm;43666;51.442;6.778;2023-06-14T05:43:33;40.65;38.67;42.35;;
49732;Laerm;43666;51.442;6.778;2023-06-14T05:45:58;40.65;38.52;42.16;;
49732;Laerm;43666;51.442;6.778;2023-06-14T05:48:24;40.64;38.67;42.22;;
49732;Laerm;43666;51.442;6.778;2023-06-14T05:50:50;40.66;38.52;42.35;;
49732;Laerm;43666;51.442;6.778;2023-06-14T05:53:16;40.66;38.67;41.96;;
49732;Laerm;43666;51.442;6.778;2023-06-14T05:55:41;40.66;38.21;42.22;;
49732;Laerm;43666;51.442;6.778;2023-06-14T05:58:07;40.65;38.52;42.16;;
49732;Laerm;43666;51.442;6.778;2023-06-14T06:00:33;40.65;38.37;42.16;;
49732;Laerm;43666;51.442;6.778;2023-06-14T06:02:59;40.64;38.67;42.16;;
49732;Laerm;43666;51.442;6.778;2023-06-14T06:05:26;40.66;38.67;42.22;;
49732;Laerm;43666;51.442;6.778;2023-06-14T06:07:51;40.64;38.67;42.16;;
49732;Laerm;43666;51.442;6.778;2023-06-14T06:10:17;40.65;38.67;42.03;;
49732;Laerm;43666;51.442;6.778;2023-06-14T06:12:43;40.65;38.52;42.88;;
49732;Laerm;43666;51.442;6.778;2023-06-14T06:15:09;40.63;38.37;42.47;;
49732;Laerm;43666;51.442;6.778;2023-06-14T06:17:38;40.62;38.21;42.41;;
49732;Laerm;43666;51.442;6.778;2023-06-14T06:20:04;40.62;38.67;42.03;;
49732;Laerm;43666;51.442;6.778;2023-06-14T06:22:31;40.63;38.52;42.19;;
49732;Laerm;43666;51.442;6.778;2023-06-14T06:24:57;40.60;38.52;42.22;;
49732;Laerm;43666;51.442;6.778;2023-06-14T06:27:22;40.62;38.37;42.22;;
49732;Laerm;43666;51.442;6.778;2023-06-14T06:29:48;40.63;38.05;42.29;;
49732;Laerm;43666;51.442;6.778;2023-06-14T06:32:14;40.64;38.37;42.16;;
49732;Laerm;43666;51.442;6.778;2023-06-14T06:34:40;40.63;38.52;42.24;;
49732;Laerm;43666;51.442;6.778;2023-06-14T06:37:06;40.59;38.52;42.47;;
49732;Laerm;43666;51.442;6.778;2023-06-14T06:39:32;40.59;38.21;42.22;;
49732;Laerm;43666;51.442;6.778;2023-06-14T06:41:57;40.57;38.52;42.29;;
49732;Laerm;43666;51.442;6.778;2023-06-14T06:44:23;40.56;38.52;42.16;;
49732;Laerm;43666;51.442;6.778;2023-06-14T06:46:49;40.53;38.37;42.16;;
49732;Laerm;43666;51.442;6.778;2023-06-14T06:49:15;40.55;38.52;42.09;;
49732;Laerm;43666;51.442;6.778;2023-06-14T06:51:41;40.51;37.88;42.16;;
49732;Laerm;43666;51.442;6.778;2023-06-14T06:54:07;40.39;38.05;42.53;;
49732;Laerm;43666;51.442;6.778;2023-06-14T06:56:33;40.37;37.88;45.30;;
49732;Laerm;43666;51.442;6.778;2023-06-14T06:59:00;40.34;38.21;42.71;;
49732;Laerm;43666;51.442;6.778;2023-06-14T07:01:26;40.32;37.88;42.16;;
49732;Laerm;43666;51.442;6.778;2023-06-14T07:03:57;40.33;38.05;42.41;;
49732;Laerm;43666;51.442;6.778;2023-06-14T07:06:23;40.38;37.52;42.03;;
49732;Laerm;43666;51.442;6.778;2023-06-14T07:08:52;40.40;38.05;42.22;;
49732;Laerm;43666;51.442;6.778;2023-06-14T07:11:18;40.29;37.32;42.41;;
49732;Laerm;43666;51.442;6.778;2023-06-14T07:13:44;40.33;38.21;42.03;;
49732;Laerm;43666;51.442;6.778;2023-06-14T07:16:10;40.30;37.52;42.09;;
49732;Laerm;43666;51.442;6.778;2023-06-14T07:18:36;40.31;38.21;42.29;;
49732;Laerm;43666;51.442;6.778;2023-06-14T07:21:03;40.30;38.05;42.09;;
49732;Laerm;43666;51.442;6.778;2023-06-14T07:23:29;40.34;37.70;42.22;;
49732;Laerm;43666;51.442;6.778;2023-06-14T07:25:54;40.28;37.88;42.03;;
49732;Laerm;43666;51.442;6.778;2023-06-14T07:28:20;40.23;37.52;42.09;;
49732;Laerm;43666;51.442;6.778;2023-06-14T07:30:46;40.24;37.32;42.76;;
49732;Laerm;43666;51.442;6.778;2023-06-14T07:33:14;40.13;37.52;42.29;;
49732;Laerm;43666;51.442;6.778;2023-06-14T07:35:39;40.07;37.12;44.11;;
49732;Laerm;43666;51.442;6.778;2023-06-14T07:38:05;40.10;37.52;41.89;;
49732;Laerm;43666;51.442;6.778;2023-06-14T07:40:31;40.10;37.12;41.96;;
49732;Laerm;43666;51.442;6.778;2023-06-14T07:42:57;40.08;37.12;42.09;;
49732;Laerm;43666;51.442;6.778;2023-06-14T07:45:23;40.10;37.52;43.04;;
49732;Laerm;43666;51.442;6.778;2023-06-14T07:47:48;40.04;37.32;42.22;;
49732;Laerm;43666;51.442;6.778;2023-06-14T07:50:15;40.02;37.70;42.22;;
49732;Laerm;43666;51.442;6.778;2023-06-14T07:52:41;40.02;36.91;41.89;;
49732;Laerm;43666;51.442;6.778;2023-06-14T07:55:07;40.10;37.70;41.89;;
49732;Laerm;43666;51.442;6.778;2023-06-14T07:57:32;40.12;37.70;42.03;;
49732;Laerm;43666;51.442;6.778;2023-06-14T07:59:58;40.08;37.12;43.14;;
49732;Laerm;43666;51.442;6.778;2023-06-14T08:02:24;40.01;37.12;43.29;;
49732;Laerm;43666;51.442;6.778;2023-06-14T08:04:49;39.95;37.12;42.22;;
49732;Laerm;43666;51.442;6.778;2023-06-14T08:07:15;39.96;36.45;41.96;;
49732;Laerm;43666;51.442;6.778;2023-06-14T08:09:41;40.02;37.32;41.81;;
49732;Laerm;43666;51.442;6.778;2023-06-14T08:12:07;40.10;36.77;42.03;;
49732;Laerm;43666;51.442;6.778;2023-06-14T08:14:35;40.23;36.91;48.61;;
49732;Laerm;43666;51.442;6.778;2023-06-14T08:17:01;40.14;37.32;46.30;;
49732;Laerm;43666;51.442;6.778;2023-06-14T08:19:27;40.16;37.32;42.03;;
49732;Laerm;43666;51.442;6.778;2023-06-14T08:21:53;40.11;36.69;42.09;;
49732;Laerm;43666;51.442;6.778;2023-06-14T08:24:23;40.08;37.52;42.35;;
49732;Laerm;43666;51.442;6.778;2023-06-14T08:26:54;40.09;36.91;42.16;;
49732;Laerm;43666;51.442;6.778;2023-06-14T08:29:20;40.11;37.32;41.96;;
49732;Laerm;43666;51.442;6.778;2023-06-14T08:31:46;40.13;37.12;42.22;;
49732;Laerm;43666;51.442;6.778;2023-06-14T08:34:12;40.15;37.70;42.03;;
49732;Laerm;43666;51.442;6.778;2023-06-14T08:36:38;40.17;37.70;42.03;;
49732;Laerm;43666;51.442;6.778;2023-06-14T08:39:03;40.12;37.70;46.43;;
49732;Laerm;43666;51.442;6.778;2023-06-14T08:41:29;40.08;37.12;45.99;;
49732;Laerm;43666;51.442;6.778;2023-06-14T08:43:55;40.04;37.12;43.04;;
49732;Laerm;43666;51.442;6.778;2023-06-14T08:46:21;40.10;36.69;43.94;;
49732;Laerm;43666;51.442;6.778;2023-06-14T08:48:53;40.11;37.52;44.76;;
49732;Laerm;43666;51.442;6.778;2023-06-14T08:51:20;40.17;37.52;45.33;;
49732;Laerm;43666;51.442;6.778;2023-06-14T08:53:51;40.23;36.69;48.90;;
49732;Laerm;43666;51.442;6.778;2023-06-14T08:56:18;40.17;37.52;42.03;;
49732;Laerm;43666;51.442;6.778;2023-06-14T08:58:46;40.08;36.56;41.96;;
49732;Laerm;43666;51.442;6.778;2023-06-14T09:01:13;40.01;36.69;42.09;;
49732;Laerm;43666;51.442;6.778;2023-06-14T09:03:40;40.04;37.12;41.96;;
49732;Laerm;43666;51.442;6.778;2023-06-14T09:06:22;40.06;37.12;42.22;;
49732;Laerm;43666;51.442;6.778;2023-06-14T09:08:49;40.15;37.12;42.03;;
49732;Laerm;43666;51.442;6.778;2023-06-14T09:11:18;40.19;37.70;49.23;;
49732;Laerm;43666;51.442;6.778;2023-06-14T09:13:48;40.07;37.52;41.82;;
49732;Laerm;43666;51.442;6.778;2023-06-14T09:16:14;40.13;36.69;41.96;;
49732;Laerm;43666;51.442;6.778;2023-06-14T09:18:43;40.14;36.45;43.77;;
49732;Laerm;43666;51.442;6.778;2023-06-14T09:21:13;40.06;37.12;43.63;;
49732;Laerm;43666;51.442;6.778;2023-06-14T09:23:40;40.07;37.32;42.29;;
49732;Laerm;43666;51.442;6.778;2023-06-14T09:26:17;40.07;36.69;42.16;;
49732;Laerm;43666;51.442;6.778;2023-06-14T09:28:44;40.08;37.32;43.86;;
49732;Laerm;43666;51.442;6.778;2023-06-14T09:31:11;39.99;36.69;41.89;;
49732;Laerm;43666;51.442;6.778;2023-06-14T09:33:37;39.93;35.94;42.03;;
49732;Laerm;43666;51.442;6.778;2023-06-14T09:36:03;39.92;36.91;41.96;;
49732;Laerm;43666;51.442;6.778;2023-06-14T09:38:29;39.90;37.32;42.98;;
49732;Laerm;43666;51.442;6.778;2023-06-14T09:40:58;39.74;35.04;43.63;;
49732;Laerm;43666;51.442;6.778;2023-06-14T09:43:24;39.74;35.04;42.53;;
49732;Laerm;43666;51.442;6.778;2023-06-14T09:45:53;39.71;36.45;42.35;;
49732;Laerm;43666;51.442;6.778;2023-06-14T09:48:19;39.77;36.69;42.35;;
49732;Laerm;43666;51.442;6.778;2023-06-14T09:50:46;39.87;36.69;47.14;;
49732;Laerm;43666;51.442;6.778;2023-06-14T09:53:14;39.76;36.20;42.03;;
49732;Laerm;43666;51.442;6.778;2023-06-14T09:55:41;39.73;36.45;42.03;;
49732;Laerm;43666;51.442;6.778;2023-06-14T09:58:09;39.69;36.91;41.82;;
49732;Laerm;43666;51.442;6.778;2023-06-14T10:00:35;39.71;36.91;42.03;;
49732;Laerm;43666;51.442;6.778;2023-06-14T10:03:12;39.75;36.69;42.09;;
49732;Laerm;43666;51.442;6.778;2023-06-14T10:05:39;39.71;36.20;43.81;;
49732;Laerm;43666;51.442;6.778;2023-06-14T10:08:10;39.73;36.69;41.68;;
49732;Laerm;43666;51.442;6.778;2023-06-14T10:10:38;39.79;37.12;41.89;;
49732;Laerm;43666;51.442;6.778;2023-06-14T10:13:04;39.74;35.66;42.88;;
49732;Laerm;43666;51.442;6.778;2023-06-14T10:18:18;39.78;35.04;47.55;;
49732;Laerm;43666;51.442;6.778;2023-06-14T10:23:15;39.59;36.20;41.75;;
49732;Laerm;43666;51.442;6.778;2023-06-14T10:25:43;39.68;35.94;41.61;;
49732;Laerm;43666;51.442;6.778;2023-06-14T10:28:19;39.65;36.20;41.75;;
49732;Laerm;43666;51.442;6.778;2023-06-14T10:31:02;39.68;36.20;43.63;;
49732;Laerm;43666;51.442;6.778;2023-06-14T10:33:31;39.71;36.91;42.41;;
49732;Laerm;43666;51.442;6.778;2023-06-14T10:36:07;39.59;33.44;42.03;;
49732;Laerm;43666;51.442;6.778;2023-06-14T10:38:33;39.60;36.69;41.61;;
49732;Laerm;43666;51.442;6.778;2023-06-14T10:41:00;39.58;36.20;41.89;;
49732;Laerm;43666;51.442;6.778;2023-06-14T10:43:27;39.57;32.93;41.82;;
49732;Laerm;43666;51.442;6.778;2023-06-14T10:48:40;39.22;32.35;41.53;;
49732;Laerm;43666;51.442;6.778;2023-06-14T10:51:20;38.99;28.67;41.46;;
49732;Laerm;43666;51.442;6.778;2023-06-14T10:53:46;38.96;26.91;42.16;;
49732;Laerm;43666;51.442;6.778;2023-06-14T10:56:23;39.26;35.36;41.82;;
49732;Laerm;43666;51.442;6.778;2023-06-14T10:58:49;39.30;35.36;41.89;;
49732;Laerm;43666;51.442;6.778;2023-06-14T11:01:17;39.33;36.20;41.68;;
49732;Laerm;43666;51.442;6.778;2023-06-14T11:03:51;39.33;36.20;41.53;;
49732;Laerm;43666;51.442;6.778;2023-06-14T11:06:22;39.37;35.94;44.43;;
49732;Laerm;43666;51.442;6.778;2023-06-14T11:11:14;39.30;35.94;41.75;;
49732;Laerm;43666;51.442;6.778;2023-06-14T11:13:44;39.21;36.20;41.53;;
49732;Laerm;43666;51.442;6.778;2023-06-14T11:16:14;39.25;35.94;43.54;;
49732;Laerm;43666;51.442;6.778;2023-06-14T11:18:40;39.27;35.36;41.75;;
49732;Laerm;43666;51.442;6.778;2023-06-14T11:21:06;39.30;36.45;41.61;;
49732;Laerm;43666;51.442;6.778;2023-06-14T11:23:32;39.24;35.04;41.96;;
49732;Laerm;43666;51.442;6.778;2023-06-14T11:25:58;39.29;35.66;41.75;;
49732;Laerm;43666;51.442;6.778;2023-06-14T11:28:23;39.26;36.20;41.38;;
49732;Laerm;43666;51.442;6.778;2023-06-14T11:30:59;39.27;26.91;41.53;;
49732;Laerm;43666;51.442;6.778;2023-06-14T11:33:25;39.33;34.69;48.40;;
49732;Laerm;43666;51.442;6.778;2023-06-14T11:35:51;39.27;34.69;41.61;;
49732;Laerm;43666;51.442;6.778;2023-06-14T11:38:17;39.28;35.94;41.61;;
49732;Laerm;43666;51.442;6.778;2023-06-14T11:40:43;39.31;35.04;41.53;;
49732;Laerm;43666;51.442;6.778;2023-06-14T11:43:09;39.24;35.36;41.46;;
49732;Laerm;43666;51.442;6.778;2023-06-14T11:45:35;39.22;35.04;41.53;;
49732;Laerm;43666;51.442;6.778;2023-06-14T11:48:02;39.23;35.36;41.75;;
49732;Laerm;43666;51.442;6.778;2023-06-14T11:50:27;39.19;35.66;41.75;;
49732;Laerm;43666;51.442;6.778;2023-06-14T11:52:54;39.13;29.92;45.66;;
49732;Laerm;43666;51.442;6.778;2023-06-14T11:55:20;39.17;35.04;46.55;;
49732;Laerm;43666;51.442;6.778;2023-06-14T11:57:46;39.15;5.00;47.77;;
49732;Laerm;43666;51.442;6.778;2023-06-14T12:00:12;39.15;35.66;43.72;;
49732;Laerm;43666;51.442;6.778;2023-06-14T12:02:38;39.14;35.36;41.61;;
49732;Laerm;43666;51.442;6.778;2023-06-14T12:05:05;39.20;35.36;41.53;;
49732;Laerm;43666;51.442;6.778;2023-06-14T12:07:33;39.17;34.31;41.61;;
49732;Laerm;43666;51.442;6.778;2023-06-14T12:12:25;39.19;34.31;41.82;;
49732;Laerm;43666;51.442;6.778;2023-06-14T12:14:51;39.22;35.36;41.46;;
49732;Laerm;43666;51.442;6.778;2023-06-14T12:17:18;39.20;34.31;41.46;;
49732;Laerm;43666;51.442;6.778;2023-06-14T12:19:44;39.16;35.94;41.30;;
49732;Laerm;43666;51.442;6.778;2023-06-14T12:22:10;39.21;35.36;41.53;;
49732;Laerm;43666;51.442;6.778;2023-06-14T12:24:37;39.15;35.94;41.96;;
49732;Laerm;43666;51.442;6.778;2023-06-14T12:27:06;39.20;35.66;41.75;;
49732;Laerm;43666;51.442;6.778;2023-06-14T12:29:32;39.26;35.66;41.68;;
49732;Laerm;43666;51.442;6.778;2023-06-14T12:31:57;39.27;35.04;44.80;;
49732;Laerm;43666;51.442;6.778;2023-06-14T12:34:23;39.24;35.94;41.61;;
49732;Laerm;43666;51.442;6.778;2023-06-14T12:36:50;39.24;34.31;42.82;;
49732;Laerm;43666;51.442;6.778;2023-06-14T12:39:16;39.24;34.31;41.53;;
49732;Laerm;43666;51.442;6.778;2023-06-14T12:41:42;39.34;31.68;41.53;;
49732;Laerm;43666;51.442;6.778;2023-06-14T12:44:08;39.26;35.66;41.61;;
49732;Laerm;43666;51.442;6.778;2023-06-14T12:46:34;39.28;35.94;44.19;;
49732;Laerm;43666;51.442;6.778;2023-06-14T12:49:00;39.34;36.20;41.75;;
49732;Laerm;43666;51.442;6.778;2023-06-14T12:51:26;39.37;34.69;41.61;;
49732;Laerm;43666;51.442;6.778;2023-06-14T12:53:52;39.39;35.36;41.75;;
49732;Laerm;43666;51.442;6.778;2023-06-14T12:56:19;39.25;35.36;44.54;;
49732;Laerm;43666;51.442;6.778;2023-06-14T12:58:45;39.19;35.04;41.68;;
49732;Laerm;43666;51.442;6.778;2023-06-14T13:01:11;39.23;35.66;41.68;;
49732;Laerm;43666;51.442;6.778;2023-06-14T13:03:37;39.17;35.04;41.61;;
49732;Laerm;43666;51.442;6.778;2023-06-14T13:06:03;39.16;35.66;41.53;;
49732;Laerm;43666;51.442;6.778;2023-06-14T13:08:29;39.17;35.36;41.68;;
49732;Laerm;43666;51.442;6.778;2023-06-14T13:10:55;39.13;35.66;41.53;;
49732;Laerm;43666;51.442;6.778;2023-06-14T13:13:21;39.10;35.04;41.82;;
49732;Laerm;43666;51.442;6.778;2023-06-14T13:15:46;39.27;35.94;50.19;;
49732;Laerm;43666;51.442;6.778;2023-06-14T13:18:13;39.25;34.69;44.03;;
49732;Laerm;43666;51.442;6.778;2023-06-14T13:20:39;39.23;35.66;41.30;;
49732;Laerm;43666;51.442;6.778;2023-06-14T13:23:05;39.23;35.94;47.12;;
49732;Laerm;43666;51.442;6.778;2023-06-14T13:25:33;39.37;34.69;47.98;;
49732;Laerm;43666;51.442;6.778;2023-06-14T13:28:00;39.19;35.66;41.96;;
49732;Laerm;43666;51.442;6.778;2023-06-14T13:30:26;39.23;35.94;42.16;;
49732;Laerm;43666;51.442;6.778;2023-06-14T13:32:51;39.23;35.36;41.46;;
49732;Laerm;43666;51.442;6.778;2023-06-14T13:35:18;39.24;35.94;42.03;;
49732;Laerm;43666;51.442;6.778;2023-06-14T13:37:43;39.21;35.36;41.68;;
49732;Laerm;43666;51.442;6.778;2023-06-14T13:40:09;39.14;35.36;42.88;;
49732;Laerm;43666;51.442;6.778;2023-06-14T13:42:35;39.12;35.66;41.75;;
49732;Laerm;43666;51.442;6.778;2023-06-14T13:45:01;39.14;35.66;42.16;;
49732;Laerm;43666;51.442;6.778;2023-06-14T13:47:28;39.13;35.36;42.35;;
49732;Laerm;43666;51.442;6.778;2023-06-14T13:49:53;39.13;35.36;41.46;;
49732;Laerm;43666;51.442;6.778;2023-06-14T13:52:20;39.20;35.94;43.68;;
49732;Laerm;43666;51.442;6.778;2023-06-14T13:54:46;39.26;35.66;46.91;;